• Join FlightAware (Why Join?)
  • Login
  • US Flag 
05:22AM EDT


 

Airport Tracker/Info


-or-


 

Live Flight TrackerFlight Track Log ✈ SKW5510 ✈ 09-Jun-2013 ✈ KDEN - KCOD

Flight Track Log - Related Links

Times and Time Zones

All times are in EDT time to prevent confusion due to time zone crossing. See the SKW5510 flight status page for this flight to view local times or setup timezone preferences in your user account.

Time Position Orientation Groundspeed Altitude Reporting Facility
EDT Latitude Longitude Course Direction KTS MPH feet Rate Location/Type
05:52PM 39.8833 -104.6000 75° East 197 227 6,200  Level Denver TRACON
05:53PM 39.9000 -104.5167 75° East 230 265 8,400 1,800 Climbing Denver TRACON
05:54PM 39.9333 -104.4500 57° Northeast 272 313 10,000 1,680 Climbing Denver TRACON
05:55PM 40.0000 -104.4000 30° Northeast 297 342 11,800 1,920 Climbing Denver TRACON
05:56PM 40.0667 -104.4333 339° North 285 328 13,700 2,040 Climbing Denver TRACON
05:56PM 40.0950 -104.4508 335° Northwest 291 335 14,300 2,100 Climbing Denver Center
05:57PM 40.1681 -104.4928 336° Northwest 289 333 16,500 1,920 Climbing Denver Center
05:58PM 40.2472 -104.5386 336° Northwest 291 335 18,300 1,500 Climbing Denver Center
05:59PM 40.3219 -104.5811 337° Northwest 295 339 19,600 1,260 Climbing Denver Center
06:00PM 40.4069 -104.6294 337° Northwest 312 359 21,000 1,200 Climbing Denver Center
06:01PM 40.4847 -104.6756 336° Northwest 306 352 22,400 1,020 Climbing Denver Center
06:02PM 40.5847 -104.7331 336° Northwest 319 367 23,400 720 Climbing Denver Center
06:03PM 40.6781 -104.7894 335° Northwest 342 394 24,000 780 Climbing Denver Center
06:04PM 40.7700 -104.8389 338° Northwest 341 392 25,100 900 Climbing Denver Center
06:05PM 40.8611 -104.8839 340° North 350 403 25,900 720 Climbing Denver Center
06:06PM 40.9531 -104.9294 339° North 354 407 26,700 720 Climbing Denver Center
06:07PM 41.0550 -104.9797 340° North 359 413 27,500 600 Climbing Denver Center
06:08PM 41.1447 -105.0250 339° North 361 415 28,000 600 Climbing Denver Center
06:09PM 41.2500 -105.0756 340° North 361 415 28,800 720 Climbing Denver Center
06:10PM 41.3408 -105.1211 339° North 363 418 29,600 780 Climbing Denver Center
06:12PM 41.4461 -105.1750 339° North 362 417 30,500 720 Climbing Denver Center
06:13PM 41.5369 -105.2203 340° North 364 419 31,100 540 Climbing Denver Center
06:14PM 41.6294 -105.3036 326° Northwest 361 415 31,700 420 Climbing Denver Center
06:15PM 41.7053 -105.3878 320° Northwest 366 421 32,000 120 Climbing Denver Center
06:16PM 41.7803 -105.4689 321° Northwest 364 419 32,000  Level Denver Center
06:17PM 41.8658 -105.5606 321° Northwest 353 406 32,000  Level Denver Center
06:18PM 41.9361 -105.6375 321° Northwest 343 395 32,000  Level Denver Center
06:19PM 42.0053 -105.7139 321° Northwest 337 388 32,000  Level Denver Center
06:20PM 42.0767 -105.7911 321° Northwest 339 390 32,000  Level Denver Center
06:21PM 42.1697 -105.8950 320° Northwest 342 394 32,000  Level Denver Center
06:22PM 42.2411 -105.9739 321° Northwest 346 398 32,000  Level Denver Center
06:23PM 42.3253 -106.0664 321° Northwest 349 402 32,000  Level Denver Center
06:24PM 42.3961 -106.1456 320° Northwest 346 398 32,000  Level Denver Center
06:25PM 42.4686 -106.2244 321° Northwest 347 399 32,000  Level Denver Center
06:26PM 42.5511 -106.3183 320° Northwest 348 400 32,000  Level Denver Center
06:27PM 42.6211 -106.3983 320° Northwest 345 397 32,000  Level Denver Center
06:28PM 42.7025 -106.4906 320° Northwest 342 394 32,000  Level Denver Center
06:29PM 42.7725 -106.5689 321° Northwest 340 391 32,000  Level Denver Center
06:30PM 42.8539 -106.6614 320° Northwest 343 395 32,000  Level Denver Center
06:31PM 42.9236 -106.7400 320° Northwest 342 394 32,000  Level Denver Center
06:32PM 43.0039 -106.8322 320° Northwest 338 389 32,000  Level Denver Center
06:33PM 43.0733 -106.9117 320° Northwest 340 391 32,000  Level Denver Center
06:34PM 43.1072 -106.9531 318° Northwest 336 387 32,000  Level Salt Lake Center
06:34PM 43.1539 -107.0042 321° Northwest 339 390 32,000  Level Denver Center
06:35PM 43.2244 -107.0856 320° Northwest 342 394 32,000  Level Denver Center
06:36PM 43.2586 -107.1283 318° Northwest 345 397 32,000  Level Salt Lake Center
06:37PM 43.3408 -107.2225 320° Northwest 347 399 32,000  Level Salt Lake Center
06:38PM 43.3881 -107.2772 320° Northwest 347 399 32,000  Level Denver Center
06:39PM 43.4717 -107.3717 321° Northwest 348 400 32,000  Level Denver Center
06:39PM 43.4939 -107.4014 316° Northwest 347 399 32,000 -780 Level Salt Lake Center
06:40PM 43.5650 -107.4856 319° Northwest 353 406 31,000 -1,260 Descending Salt Lake Center
06:41PM 43.6331 -107.5661 319° Northwest 340 391 29,400 -1,740 Descending Salt Lake Center
06:42PM 43.7078 -107.6561 319° Northwest 322 371 27,500 -1,680 Descending Salt Lake Center
06:43PM 43.7692 -107.7269 320° Northwest 302 348 26,000 -1,560 Descending Salt Lake Center
06:44PM 43.8364 -107.8064 320° Northwest 284 327 24,300 -1,560 Descending Salt Lake Center
06:45PM 43.8900 -107.8703 319° Northwest 268 308 22,900 -1,560 Descending Salt Lake Center
06:46PM 43.9508 -107.9431 319° Northwest 261 300 21,200 -1,560 Descending Salt Lake Center
06:47PM 43.9994 -108.0019 319° Northwest 244 281 19,700 -1,440 Descending Salt Lake Center
06:48PM 44.0408 -108.0658 312° West 235 270 18,300 -1,620 Descending Salt Lake Center
06:49PM 44.0897 -108.1414 312° West 235 270 16,500 -1,500 Descending Salt Lake Center
06:50PM 44.1300 -108.2036 312° West 231 266 15,300 -1,260 Descending Salt Lake Center
06:51PM 44.1767 -108.2739 313° West 226 260 14,000 -1,140 Descending Salt Lake Center
06:52PM 44.2175 -108.3372 312° West 226 260 13,000 -1,020 Descending Salt Lake Center
06:53PM 44.2592 -108.4022 312° West 230 265 12,000 -1,020 Descending Salt Lake Center
06:54PM 44.3078 -108.4772 312° West 232 267 11,000 -900 Descending Salt Lake Center
06:55PM 44.3492 -108.5425 312° West 232 267 10,200 -540 Descending Salt Lake Center
06:56PM 44.4011 -108.6233 312° West 240 276 10,000 -360 Descending Salt Lake Center
06:57PM 44.4439 -108.6867 313° West 240 276 9,500 -780 Descending Salt Lake Center
06:58PM 44.4775 -108.7578 304° West 234 269 8,500 -1,080 Descending Salt Lake Center
06:59PM 44.5106 -108.8422 299° West 228 262 7,300 -960 Descending Salt Lake Center
07:00PM 44.5275 -108.9044 291° West 204 235 6,600 -720 Descending Salt Lake Center
07:01PM 44.5439 -108.9644 291° West 167 192 5,900 -480 Descending Salt Lake Center
07:03PM 44.5528 -109.0092 286° West 160 184 5,700 -240 Descending Salt Lake Center
07:04PM 44.5167 -109.0167 200° South  Level FlightAware Approximate
07:11PM 44.5202 -109.0238 200° South  Level Estimated